sensor_id;sensor_type;location;lat;lon;timestamp;temperature;humidity
26589;DHT22;14235;48.532;8.722;2022-10-26T00:00:06;11.80;99.90
26589;DHT22;14235;48.532;8.722;2022-10-26T00:02:32;11.60;99.90
26589;DHT22;14235;48.532;8.722;2022-10-26T00:04:57;11.70;99.90
26589;DHT22;14235;48.532;8.722;2022-10-26T00:07:23;11.90;99.90
26589;DHT22;14235;48.532;8.722;2022-10-26T00:09:49;11.60;99.90
26589;DHT22;14235;48.532;8.722;2022-10-26T00:12:14;11.60;99.90
26589;DHT22;14235;48.532;8.722;2022-10-26T00:14:40;11.70;99.90
26589;DHT22;14235;48.532;8.722;2022-10-26T00:17:05;11.60;99.90
26589;DHT22;14235;48.532;8.722;2022-10-26T00:19:34;11.50;99.90
26589;DHT22;14235;48.532;8.722;2022-10-26T00:21:59;11.50;99.90
26589;DHT22;14235;48.532;8.722;2022-10-26T00:24:25;11.60;99.90
26589;DHT22;14235;48.532;8.722;2022-10-26T00:26:50;11.60;99.90
26589;DHT22;14235;48.532;8.722;2022-10-26T00:29:16;11.50;99.90
26589;DHT22;14235;48.532;8.722;2022-10-26T00:31:43;11.50;99.90
26589;DHT22;14235;48.532;8.722;2022-10-26T00:34:10;11.50;99.90
26589;DHT22;14235;48.532;8.722;2022-10-26T00:36:36;11.50;99.90
26589;DHT22;14235;48.532;8.722;2022-10-26T00:39:02;11.60;99.90
26589;DHT22;14235;48.532;8.722;2022-10-26T00:41:30;11.40;99.90
26589;DHT22;14235;48.532;8.722;2022-10-26T00:43:56;11.50;99.90
26589;DHT22;14235;48.532;8.722;2022-10-26T00:46:26;11.50;99.90
26589;DHT22;14235;48.532;8.722;2022-10-26T00:48:56;11.50;99.90
26589;DHT22;14235;48.532;8.722;2022-10-26T00:51:52;11.50;99.90
26589;DHT22;14235;48.532;8.722;2022-10-26T00:54:19;11.60;99.90
26589;DHT22;14235;48.532;8.722;2022-10-26T00:56:46;11.60;99.90
26589;DHT22;14235;48.532;8.722;2022-10-26T00:59:14;11.50;99.90
26589;DHT22;14235;48.532;8.722;2022-10-26T01:01:43;11.50;99.90
26589;DHT22;14235;48.532;8.722;2022-10-26T01:04:09;11.40;99.90
26589;DHT22;14235;48.532;8.722;2022-10-26T01:06:36;11.50;99.90
26589;DHT22;14235;48.532;8.722;2022-10-26T01:09:03;11.40;99.90
26589;DHT22;14235;48.532;8.722;2022-10-26T01:11:29;11.60;99.90
26589;DHT22;14235;48.532;8.722;2022-10-26T01:13:55;11.40;99.90
26589;DHT22;14235;48.532;8.722;2022-10-26T01:16:38;11.60;99.90
26589;DHT22;14235;48.532;8.722;2022-10-26T01:22:23;11.40;99.90
26589;DHT22;14235;48.532;8.722;2022-10-26T01:27:35;11.30;99.90
26589;DHT22;14235;48.532;8.722;2022-10-26T01:33:20;11.30;99.90
26589;DHT22;14235;48.532;8.722;2022-10-26T01:39:04;11.30;99.90
26589;DHT22;14235;48.532;8.722;2022-10-26T01:41:51;11.30;99.90
26589;DHT22;14235;48.532;8.722;2022-10-26T01:44:31;11.30;99.90
26589;DHT22;14235;48.532;8.722;2022-10-26T01:47:00;11.30;99.90
26589;DHT22;14235;48.532;8.722;2022-10-26T01:49:31;11.40;99.90
26589;DHT22;14235;48.532;8.722;2022-10-26T01:51:58;11.80;99.90
26589;DHT22;14235;48.532;8.722;2022-10-26T01:54:23;11.50;99.90
26589;DHT22;14235;48.532;8.722;2022-10-26T01:56:51;11.90;99.90
26589;DHT22;14235;48.532;8.722;2022-10-26T02:10:53;11.20;99.90
26589;DHT22;14235;48.532;8.722;2022-10-26T02:19:19;11.10;99.90
26589;DHT22;14235;48.532;8.722;2022-10-26T02:21:51;11.20;99.90
26589;DHT22;14235;48.532;8.722;2022-10-26T02:24:19;11.20;99.90
26589;DHT22;14235;48.532;8.722;2022-10-26T02:26:47;11.20;99.90
26589;DHT22;14235;48.532;8.722;2022-10-26T02:29:17;11.20;99.90
26589;DHT22;14235;48.532;8.722;2022-10-26T04:19:25;11.30;99.90
26589;DHT22;14235;48.532;8.722;2022-10-26T04:21:51;11.40;99.90
26589;DHT22;14235;48.532;8.722;2022-10-26T04:24:16;11.70;99.90
26589;DHT22;14235;48.532;8.722;2022-10-26T04:26:42;11.80;99.90
26589;DHT22;14235;48.532;8.722;2022-10-26T04:29:09;11.40;99.90
26589;DHT22;14235;48.532;8.722;2022-10-26T04:31:35;11.50;99.90
26589;DHT22;14235;48.532;8.722;2022-10-26T04:34:01;11.30;99.90
26589;DHT22;14235;48.532;8.722;2022-10-26T04:36:26;11.20;99.90
26589;DHT22;14235;48.532;8.722;2022-10-26T04:38:52;11.70;99.90
26589;DHT22;14235;48.532;8.722;2022-10-26T04:41:18;11.90;99.90
26589;DHT22;14235;48.532;8.722;2022-10-26T04:43:43;11.60;99.90
26589;DHT22;14235;48.532;8.722;2022-10-26T04:46:09;11.40;99.90
26589;DHT22;14235;48.532;8.722;2022-10-26T04:48:34;11.10;99.90
26589;DHT22;14235;48.532;8.722;2022-10-26T04:51:00;11.20;99.90
26589;DHT22;14235;48.532;8.722;2022-10-26T04:53:26;11.10;99.90
26589;DHT22;14235;48.532;8.722;2022-10-26T04:55:59;11.20;99.90
26589;DHT22;14235;48.532;8.722;2022-10-26T04:58:28;10.90;99.90
26589;DHT22;14235;48.532;8.722;2022-10-26T05:00:54;11.00;99.90
26589;DHT22;14235;48.532;8.722;2022-10-26T05:03:20;11.10;99.90
26589;DHT22;14235;48.532;8.722;2022-10-26T05:05:45;11.20;99.90
26589;DHT22;14235;48.532;8.722;2022-10-26T05:08:12;11.20;99.90
26589;DHT22;14235;48.532;8.722;2022-10-26T05:10:38;11.10;99.90
26589;DHT22;14235;48.532;8.722;2022-10-26T05:13:04;11.20;99.90
26589;DHT22;14235;48.532;8.722;2022-10-26T05:15:29;11.30;99.90
26589;DHT22;14235;48.532;8.722;2022-10-26T05:18:00;11.10;99.90
26589;DHT22;14235;48.532;8.722;2022-10-26T05:20:29;11.40;99.90
26589;DHT22;14235;48.532;8.722;2022-10-26T05:23:15;11.70;99.90
26589;DHT22;14235;48.532;8.722;2022-10-26T05:25:43;11.60;99.90
26589;DHT22;14235;48.532;8.722;2022-10-26T05:28:11;11.50;99.90
26589;DHT22;14235;48.532;8.722;2022-10-26T05:30:38;11.10;99.90
26589;DHT22;14235;48.532;8.722;2022-10-26T05:33:04;11.30;99.90
26589;DHT22;14235;48.532;8.722;2022-10-26T05:35:31;11.30;99.90
26589;DHT22;14235;48.532;8.722;2022-10-26T05:37:57;11.70;99.90
26589;DHT22;14235;48.532;8.722;2022-10-26T05:40:23;11.80;99.90
26589;DHT22;14235;48.532;8.722;2022-10-26T05:42:49;11.20;99.90
26589;DHT22;14235;48.532;8.722;2022-10-26T05:45:17;11.40;99.90
26589;DHT22;14235;48.532;8.722;2022-10-26T05:47:44;11.30;99.90
26589;DHT22;14235;48.532;8.722;2022-10-26T05:50:10;11.40;99.90
26589;DHT22;14235;48.532;8.722;2022-10-26T05:52:44;11.50;99.90
26589;DHT22;14235;48.532;8.722;2022-10-26T05:55:12;11.50;99.90
26589;DHT22;14235;48.532;8.722;2022-10-26T05:57:38;11.20;99.90
26589;DHT22;14235;48.532;8.722;2022-10-26T06:00:18;11.20;99.90
26589;DHT22;14235;48.532;8.722;2022-10-26T06:05:57;11.20;99.90
26589;DHT22;14235;48.532;8.722;2022-10-26T06:08:25;11.30;99.90
26589;DHT22;14235;48.532;8.722;2022-10-26T06:10:52;11.20;99.90
26589;DHT22;14235;48.532;8.722;2022-10-26T06:13:19;11.20;99.90
26589;DHT22;14235;48.532;8.722;2022-10-26T06:24:13;11.20;99.90
26589;DHT22;14235;48.532;8.722;2022-10-26T06:29:31;11.30;99.90
26589;DHT22;14235;48.532;8.722;2022-10-26T06:32:01;11.30;99.90
26589;DHT22;14235;48.532;8.722;2022-10-26T06:34:32;11.30;99.90
26589;DHT22;14235;48.532;8.722;2022-10-26T06:36:59;11.30;99.90
26589;DHT22;14235;48.532;8.722;2022-10-26T06:39:28;11.30;99.90
26589;DHT22;14235;48.532;8.722;2022-10-26T06:41:56;11.70;99.90
26589;DHT22;14235;48.532;8.722;2022-10-26T06:44:22;11.30;99.90
26589;DHT22;14235;48.532;8.722;2022-10-26T06:47:00;11.30;99.90
26589;DHT22;14235;48.532;8.722;2022-10-26T06:52:26;11.40;99.90
26589;DHT22;14235;48.532;8.722;2022-10-26T06:54:54;11.60;99.90
26589;DHT22;14235;48.532;8.722;2022-10-26T06:57:25;11.50;99.90
26589;DHT22;14235;48.532;8.722;2022-10-26T06:59:54;11.50;99.90
26589;DHT22;14235;48.532;8.722;2022-10-26T07:02:21;11.50;99.90
26589;DHT22;14235;48.532;8.722;2022-10-26T07:04:46;11.50;99.90
26589;DHT22;14235;48.532;8.722;2022-10-26T07:07:33;12.00;99.90
26589;DHT22;14235;48.532;8.722;2022-10-26T07:10:00;11.80;99.90
26589;DHT22;14235;48.532;8.722;2022-10-26T07:12:26;11.90;99.90
26589;DHT22;14235;48.532;8.722;2022-10-26T07:14:51;12.00;99.90
26589;DHT22;14235;48.532;8.722;2022-10-26T07:17:17;11.70;99.90
26589;DHT22;14235;48.532;8.722;2022-10-26T07:19:43;11.70;99.90
26589;DHT22;14235;48.532;8.722;2022-10-26T07:22:09;11.80;99.90
26589;DHT22;14235;48.532;8.722;2022-10-26T07:24:35;11.90;99.90
26589;DHT22;14235;48.532;8.722;2022-10-26T07:27:01;12.00;99.90
26589;DHT22;14235;48.532;8.722;2022-10-26T07:29:27;12.00;99.90
26589;DHT22;14235;48.532;8.722;2022-10-26T07:31:53;12.10;99.90
26589;DHT22;14235;48.532;8.722;2022-10-26T07:34:18;12.00;99.90
26589;DHT22;14235;48.532;8.722;2022-10-26T07:36:44;11.90;99.90
26589;DHT22;14235;48.532;8.722;2022-10-26T07:39:10;12.00;99.90
26589;DHT22;14235;48.532;8.722;2022-10-26T07:41:35;12.00;99.90
26589;DHT22;14235;48.532;8.722;2022-10-26T07:44:01;12.10;99.90
26589;DHT22;14235;48.532;8.722;2022-10-26T07:46:26;12.10;99.90
26589;DHT22;14235;48.532;8.722;2022-10-26T07:48:52;12.40;99.90
26589;DHT22;14235;48.532;8.722;2022-10-26T07:51:18;12.00;99.90
26589;DHT22;14235;48.532;8.722;2022-10-26T07:53:45;12.00;99.90
26589;DHT22;14235;48.532;8.722;2022-10-26T07:56:11;12.10;99.90
26589;DHT22;14235;48.532;8.722;2022-10-26T07:58:37;12.40;99.90
26589;DHT22;14235;48.532;8.722;2022-10-26T08:01:12;12.20;99.90
26589;DHT22;14235;48.532;8.722;2022-10-26T08:03:37;12.40;99.90
26589;DHT22;14235;48.532;8.722;2022-10-26T08:06:03;12.90;99.90
26589;DHT22;14235;48.532;8.722;2022-10-26T08:08:30;12.10;99.90
26589;DHT22;14235;48.532;8.722;2022-10-26T08:10:56;12.50;99.90
26589;DHT22;14235;48.532;8.722;2022-10-26T08:13:21;12.30;99.90
26589;DHT22;14235;48.532;8.722;2022-10-26T08:15:47;12.60;99.90
26589;DHT22;14235;48.532;8.722;2022-10-26T08:20:39;12.30;99.90
26589;DHT22;14235;48.532;8.722;2022-10-26T08:23:04;12.60;99.90
26589;DHT22;14235;48.532;8.722;2022-10-26T08:25:31;12.70;99.90
26589;DHT22;14235;48.532;8.722;2022-10-26T08:28:06;12.70;99.90
26589;DHT22;14235;48.532;8.722;2022-10-26T08:30:32;12.60;99.90
26589;DHT22;14235;48.532;8.722;2022-10-26T08:32:59;12.60;99.90
26589;DHT22;14235;48.532;8.722;2022-10-26T08:35:25;12.70;99.90
26589;DHT22;14235;48.532;8.722;2022-10-26T08:37:51;12.80;99.90
26589;DHT22;14235;48.532;8.722;2022-10-26T08:40:20;12.70;99.90
26589;DHT22;14235;48.532;8.722;2022-10-26T08:42:49;12.80;99.90
26589;DHT22;14235;48.532;8.722;2022-10-26T08:47:50;13.00;99.90
26589;DHT22;14235;48.532;8.722;2022-10-26T08:50:32;12.70;99.90
26589;DHT22;14235;48.532;8.722;2022-10-26T08:53:16;12.70;99.90
26589;DHT22;14235;48.532;8.722;2022-10-26T08:55:48;12.70;99.90
26589;DHT22;14235;48.532;8.722;2022-10-26T08:58:17;12.80;99.90
26589;DHT22;14235;48.532;8.722;2022-10-26T09:00:47;12.90;99.90
26589;DHT22;14235;48.532;8.722;2022-10-26T09:03:15;12.90;99.90
26589;DHT22;14235;48.532;8.722;2022-10-26T09:08:41;12.70;99.90
26589;DHT22;14235;48.532;8.722;2022-10-26T09:11:25;12.90;99.90
26589;DHT22;14235;48.532;8.722;2022-10-26T09:16:22;13.00;99.90
26589;DHT22;14235;48.532;8.722;2022-10-26T09:24:36;13.10;99.90
26589;DHT22;14235;48.532;8.722;2022-10-26T09:27:17;13.10;99.90
26589;DHT22;14235;48.532;8.722;2022-10-26T09:29:44;13.10;99.90
26589;DHT22;14235;48.532;8.722;2022-10-26T09:32:20;13.20;99.90
26589;DHT22;14235;48.532;8.722;2022-10-26T09:34:51;13.30;99.90
26589;DHT22;14235;48.532;8.722;2022-10-26T09:37:27;13.40;99.90
26589;DHT22;14235;48.532;8.722;2022-10-26T09:40:11;13.50;99.90
26589;DHT22;14235;48.532;8.722;2022-10-26T09:42:54;13.60;99.90
26589;DHT22;14235;48.532;8.722;2022-10-26T09:47:57;13.00;99.90
26589;DHT22;14235;48.532;8.722;2022-10-26T09:50:42;14.00;99.90
26589;DHT22;14235;48.532;8.722;2022-10-26T09:53:09;14.30;99.90
26589;DHT22;14235;48.532;8.722;2022-10-26T09:55:45;14.40;99.90
26589;DHT22;14235;48.532;8.722;2022-10-26T09:58:29;14.60;99.90
26589;DHT22;14235;48.532;8.722;2022-10-26T10:00:56;14.70;99.90
26589;DHT22;14235;48.532;8.722;2022-10-26T10:03:27;14.80;99.90
26589;DHT22;14235;48.532;8.722;2022-10-26T10:08:40;15.00;99.90
26589;DHT22;14235;48.532;8.722;2022-10-26T10:13:43;15.10;99.90
26589;DHT22;14235;48.532;8.722;2022-10-26T10:17:14;15.40;99.90
26589;DHT22;14235;48.532;8.722;2022-10-26T10:19:44;15.60;99.90
26589;DHT22;14235;48.532;8.722;2022-10-26T10:25:00;15.30;99.90
26589;DHT22;14235;48.532;8.722;2022-10-26T10:27:28;15.30;99.90
26589;DHT22;14235;48.532;8.722;2022-10-26T10:29:55;15.50;99.90
26589;DHT22;14235;48.532;8.722;2022-10-26T10:32:29;15.60;99.90
26589;DHT22;14235;48.532;8.722;2022-10-26T10:34:58;15.70;99.90
26589;DHT22;14235;48.532;8.722;2022-10-26T10:37:40;15.90;99.90
26589;DHT22;14235;48.532;8.722;2022-10-26T10:40:18;16.00;99.90
26589;DHT22;14235;48.532;8.722;2022-10-26T10:42:44;16.20;99.90
26589;DHT22;14235;48.532;8.722;2022-10-26T10:45:24;16.40;99.90
26589;DHT22;14235;48.532;8.722;2022-10-26T10:53:50;16.80;99.90
26589;DHT22;14235;48.532;8.722;2022-10-26T10:56:35;16.80;99.90
26589;DHT22;14235;48.532;8.722;2022-10-26T10:59:24;16.80;99.90
26589;DHT22;14235;48.532;8.722;2022-10-26T11:10:51;16.70;99.90
26589;DHT22;14235;48.532;8.722;2022-10-26T11:15:51;17.30;99.90
26589;DHT22;14235;48.532;8.722;2022-10-26T11:19:04;17.30;99.90
26589;DHT22;14235;48.532;8.722;2022-10-26T11:21:35;17.50;99.90
26589;DHT22;14235;48.532;8.722;2022-10-26T11:29:24;17.60;99.90
26589;DHT22;14235;48.532;8.722;2022-10-26T11:32:16;17.70;99.90
26589;DHT22;14235;48.532;8.722;2022-10-26T11:34:47;17.60;99.90
26589;DHT22;14235;48.532;8.722;2022-10-26T11:37:35;17.50;99.90
26589;DHT22;14235;48.532;8.722;2022-10-26T11:43:11;17.60;99.90
26589;DHT22;14235;48.532;8.722;2022-10-26T11:45:41;17.40;99.90
26589;DHT22;14235;48.532;8.722;2022-10-26T11:48:30;17.40;99.90
26589;DHT22;14235;48.532;8.722;2022-10-26T11:50:57;17.50;99.90
26589;DHT22;14235;48.532;8.722;2022-10-26T11:53:35;17.50;99.90
26589;DHT22;14235;48.532;8.722;2022-10-26T11:56:02;17.50;99.90
26589;DHT22;14235;48.532;8.722;2022-10-26T11:58:30;17.60;99.90
26589;DHT22;14235;48.532;8.722;2022-10-26T12:01:04;17.80;99.90
26589;DHT22;14235;48.532;8.722;2022-10-26T12:03:35;17.90;99.90
26589;DHT22;14235;48.532;8.722;2022-10-26T12:06:02;18.10;99.90
26589;DHT22;14235;48.532;8.722;2022-10-26T12:24:00;18.90;99.90
26589;DHT22;14235;48.532;8.722;2022-10-26T12:34:14;19.20;99.90
26589;DHT22;14235;48.532;8.722;2022-10-26T12:39:34;19.20;99.90
26589;DHT22;14235;48.532;8.722;2022-10-26T12:47:01;19.30;99.90
26589;DHT22;14235;48.532;8.722;2022-10-26T12:49:58;19.40;99.90
26589;DHT22;14235;48.532;8.722;2022-10-26T13:00:23;19.60;99.90
26589;DHT22;14235;48.532;8.722;2022-10-26T13:08:40;19.90;99.90
26589;DHT22;14235;48.532;8.722;2022-10-26T13:13:38;20.00;99.90
26589;DHT22;14235;48.532;8.722;2022-10-26T13:16:09;20.10;99.90
26589;DHT22;14235;48.532;8.722;2022-10-26T13:18:46;20.30;99.90
26589;DHT22;14235;48.532;8.722;2022-10-26T13:21:17;20.20;99.90
26589;DHT22;14235;48.532;8.722;2022-10-26T13:26:23;20.30;99.90
26589;DHT22;14235;48.532;8.722;2022-10-26T13:28:59;20.30;99.90
26589;DHT22;14235;48.532;8.722;2022-10-26T13:33:58;20.40;99.90
26589;DHT22;14235;48.532;8.722;2022-10-26T13:36:35;20.50;99.90
26589;DHT22;14235;48.532;8.722;2022-10-26T13:41:37;20.90;99.90
26589;DHT22;14235;48.532;8.722;2022-10-26T13:44:05;20.80;99.90
26589;DHT22;14235;48.532;8.722;2022-10-26T13:46:37;20.80;99.90
26589;DHT22;14235;48.532;8.722;2022-10-26T13:49:19;20.90;99.90
26589;DHT22;14235;48.532;8.722;2022-10-26T13:51:49;21.00;99.90
26589;DHT22;14235;48.532;8.722;2022-10-26T13:54:35;21.00;99.90
26589;DHT22;14235;48.532;8.722;2022-10-26T13:57:34;21.10;99.90
26589;DHT22;14235;48.532;8.722;2022-10-26T14:02:41;21.20;99.90
26589;DHT22;14235;48.532;8.722;2022-10-26T14:05:13;21.10;99.90
26589;DHT22;14235;48.532;8.722;2022-10-26T14:07:50;21.20;99.90
26589;DHT22;14235;48.532;8.722;2022-10-26T14:10:28;21.20;99.90
26589;DHT22;14235;48.532;8.722;2022-10-26T14:30:23;21.90;99.90
26589;DHT22;14235;48.532;8.722;2022-10-26T14:32:49;22.00;99.90
26589;DHT22;14235;48.532;8.722;2022-10-26T14:35:16;22.60;99.90
26589;DHT22;14235;48.532;8.722;2022-10-26T14:38:03;22.50;99.90
26589;DHT22;14235;48.532;8.722;2022-10-26T14:40:33;22.20;99.90
26589;DHT22;14235;48.532;8.722;2022-10-26T14:43:00;21.70;99.90
26589;DHT22;14235;48.532;8.722;2022-10-26T14:47:53;20.70;99.90
26589;DHT22;14235;48.532;8.722;2022-10-26T14:50:21;20.40;99.90
26589;DHT22;14235;48.532;8.722;2022-10-26T14:52:52;20.10;99.90
26589;DHT22;14235;48.532;8.722;2022-10-26T14:55:19;20.00;99.90
26589;DHT22;14235;48.532;8.722;2022-10-26T14:57:47;19.60;99.90
26589;DHT22;14235;48.532;8.722;2022-10-26T15:00:20;19.40;99.90
26589;DHT22;14235;48.532;8.722;2022-10-26T15:02:56;19.10;99.90
26589;DHT22;14235;48.532;8.722;2022-10-26T15:07:48;18.90;99.90
26589;DHT22;14235;48.532;8.722;2022-10-26T15:10:47;18.70;99.90
26589;DHT22;14235;48.532;8.722;2022-10-26T15:13:32;18.40;99.90
26589;DHT22;14235;48.532;8.722;2022-10-26T15:18:34;18.40;99.90
26589;DHT22;14235;48.532;8.722;2022-10-26T15:21:00;18.30;99.90
26589;DHT22;14235;48.532;8.722;2022-10-26T15:23:27;18.80;99.90
26589;DHT22;14235;48.532;8.722;2022-10-26T15:25:55;18.30;99.90
26589;DHT22;14235;48.532;8.722;2022-10-26T15:28:44;18.10;99.90
26589;DHT22;14235;48.532;8.722;2022-10-26T15:33:38;17.90;99.90
26589;DHT22;14235;48.532;8.722;2022-10-26T15:36:14;18.00;99.90
26589;DHT22;14235;48.532;8.722;2022-10-26T15:38:41;17.90;99.90
26589;DHT22;14235;48.532;8.722;2022-10-26T15:41:17;17.90;99.90
26589;DHT22;14235;48.532;8.722;2022-10-26T15:43:46;17.80;99.90
26589;DHT22;14235;48.532;8.722;2022-10-26T15:46:12;17.80;99.90
26589;DHT22;14235;48.532;8.722;2022-10-26T15:48:38;17.90;99.90
26589;DHT22;14235;48.532;8.722;2022-10-26T15:51:06;17.80;99.90
26589;DHT22;14235;48.532;8.722;2022-10-26T15:53:32;17.70;99.90
26589;DHT22;14235;48.532;8.722;2022-10-26T15:55:58;17.70;99.90
26589;DHT22;14235;48.532;8.722;2022-10-26T15:58:26;17.70;99.90
26589;DHT22;14235;48.532;8.722;2022-10-26T16:00:52;17.70;99.90
26589;DHT22;14235;48.532;8.722;2022-10-26T16:03:20;17.50;99.90
26589;DHT22;14235;48.532;8.722;2022-10-26T16:05:58;17.40;99.90
26589;DHT22;14235;48.532;8.722;2022-10-26T16:08:26;17.30;99.90
26589;DHT22;14235;48.532;8.722;2022-10-26T16:10:53;17.30;99.90
26589;DHT22;14235;48.532;8.722;2022-10-26T16:13:19;17.30;99.90
26589;DHT22;14235;48.532;8.722;2022-10-26T16:15:45;17.20;99.90
26589;DHT22;14235;48.532;8.722;2022-10-26T16:18:10;17.20;99.90
26589;DHT22;14235;48.532;8.722;2022-10-26T16:20:36;17.10;99.90
26589;DHT22;14235;48.532;8.722;2022-10-26T16:23:02;17.00;99.90
26589;DHT22;14235;48.532;8.722;2022-10-26T16:25:39;17.00;99.90
26589;DHT22;14235;48.532;8.722;2022-10-26T16:28:05;17.50;99.90
26589;DHT22;14235;48.532;8.722;2022-10-26T16:30:30;17.00;99.90
26589;DHT22;14235;48.532;8.722;2022-10-26T16:32:56;16.80;99.90
26589;DHT22;14235;48.532;8.722;2022-10-26T16:35:22;16.80;99.90
26589;DHT22;14235;48.532;8.722;2022-10-26T16:37:47;16.70;99.90
26589;DHT22;14235;48.532;8.722;2022-10-26T16:40:13;16.70;99.90
26589;DHT22;14235;48.532;8.722;2022-10-26T16:42:39;16.70;99.90
26589;DHT22;14235;48.532;8.722;2022-10-26T16:45:10;16.60;99.90
26589;DHT22;14235;48.532;8.722;2022-10-26T16:47:36;16.50;99.90
26589;DHT22;14235;48.532;8.722;2022-10-26T16:50:05;16.70;99.90
26589;DHT22;14235;48.532;8.722;2022-10-26T16:52:33;16.50;99.90
26589;DHT22;14235;48.532;8.722;2022-10-26T16:54:58;16.50;99.90
26589;DHT22;14235;48.532;8.722;2022-10-26T16:57:24;16.50;99.90
26589;DHT22;14235;48.532;8.722;2022-10-26T16:59:50;16.40;99.90
26589;DHT22;14235;48.532;8.722;2022-10-26T17:02:15;16.40;99.90
26589;DHT22;14235;48.532;8.722;2022-10-26T17:04:41;16.40;99.90
26589;DHT22;14235;48.532;8.722;2022-10-26T17:07:07;16.40;99.90
26589;DHT22;14235;48.532;8.722;2022-10-26T17:09:32;16.30;99.90
26589;DHT22;14235;48.532;8.722;2022-10-26T17:11:58;16.20;99.90
26589;DHT22;14235;48.532;8.722;2022-10-26T17:14:23;16.30;99.90
26589;DHT22;14235;48.532;8.722;2022-10-26T17:16:49;16.10;99.90
26589;DHT22;14235;48.532;8.722;2022-10-26T17:19:14;16.10;99.90
26589;DHT22;14235;48.532;8.722;2022-10-26T17:21:40;16.10;99.90
26589;DHT22;14235;48.532;8.722;2022-10-26T17:24:08;16.00;99.90
26589;DHT22;14235;48.532;8.722;2022-10-26T17:26:33;15.90;99.90
26589;DHT22;14235;48.532;8.722;2022-10-26T17:28:59;15.90;99.90
26589;DHT22;14235;48.532;8.722;2022-10-26T17:31:25;15.90;99.90
26589;DHT22;14235;48.532;8.722;2022-10-26T17:33:51;16.00;99.90
26589;DHT22;14235;48.532;8.722;2022-10-26T17:36:18;16.00;99.90
26589;DHT22;14235;48.532;8.722;2022-10-26T17:38:49;16.00;99.90
26589;DHT22;14235;48.532;8.722;2022-10-26T17:41:17;15.90;99.90
26589;DHT22;14235;48.532;8.722;2022-10-26T17:43:44;15.80;99.90
26589;DHT22;14235;48.532;8.722;2022-10-26T17:46:22;15.60;99.90
26589;DHT22;14235;48.532;8.722;2022-10-26T17:48:54;15.60;99.90
26589;DHT22;14235;48.532;8.722;2022-10-26T17:51:20;15.60;99.90
26589;DHT22;14235;48.532;8.722;2022-10-26T17:53:47;15.70;99.90
26589;DHT22;14235;48.532;8.722;2022-10-26T17:58:49;15.70;99.90
26589;DHT22;14235;48.532;8.722;2022-10-26T18:01:15;15.80;99.90
26589;DHT22;14235;48.532;8.722;2022-10-26T18:03:40;15.50;99.90
26589;DHT22;14235;48.532;8.722;2022-10-26T18:06:07;15.50;99.90
26589;DHT22;14235;48.532;8.722;2022-10-26T18:08:34;15.50;99.90
26589;DHT22;14235;48.532;8.722;2022-10-26T18:11:00;15.50;99.90
26589;DHT22;14235;48.532;8.722;2022-10-26T18:13:27;15.40;99.90
26589;DHT22;14235;48.532;8.722;2022-10-26T18:15:53;15.30;99.90
26589;DHT22;14235;48.532;8.722;2022-10-26T18:18:19;15.30;99.90
26589;DHT22;14235;48.532;8.722;2022-10-26T18:20:44;15.30;99.90
26589;DHT22;14235;48.532;8.722;2022-10-26T18:23:10;15.30;99.90
26589;DHT22;14235;48.532;8.722;2022-10-26T18:25:35;15.20;99.90
26589;DHT22;14235;48.532;8.722;2022-10-26T18:28:02;15.30;99.90
26589;DHT22;14235;48.532;8.722;2022-10-26T18:30:28;15.20;99.90
26589;DHT22;14235;48.532;8.722;2022-10-26T18:32:53;15.20;99.90
26589;DHT22;14235;48.532;8.722;2022-10-26T18:35:19;15.00;99.90
26589;DHT22;14235;48.532;8.722;2022-10-26T18:37:45;15.10;99.90
26589;DHT22;14235;48.532;8.722;2022-10-26T19:04:43;14.70;99.90
26589;DHT22;14235;48.532;8.722;2022-10-26T19:12:00;14.50;99.90
26589;DHT22;14235;48.532;8.722;2022-10-26T19:14:26;14.50;99.90
26589;DHT22;14235;48.532;8.722;2022-10-26T19:16:52;14.50;99.90
26589;DHT22;14235;48.532;8.722;2022-10-26T19:21:45;14.50;99.90
26589;DHT22;14235;48.532;8.722;2022-10-26T19:24:19;14.50;99.90
26589;DHT22;14235;48.532;8.722;2022-10-26T19:26:46;14.40;99.90
26589;DHT22;14235;48.532;8.722;2022-10-26T19:34:05;14.30;99.90
26589;DHT22;14235;48.532;8.722;2022-10-26T19:36:32;14.40;99.90
26589;DHT22;14235;48.532;8.722;2022-10-26T19:38:58;14.30;99.90
26589;DHT22;14235;48.532;8.722;2022-10-26T19:41:24;14.20;99.90
26589;DHT22;14235;48.532;8.722;2022-10-26T19:43:55;14.20;99.90
26589;DHT22;14235;48.532;8.722;2022-10-26T19:46:23;14.20;99.90
26589;DHT22;14235;48.532;8.722;2022-10-26T19:48:52;14.30;99.90
26589;DHT22;14235;48.532;8.722;2022-10-26T19:51:18;14.10;99.90
26589;DHT22;14235;48.532;8.722;2022-10-26T19:53:44;14.10;99.90
26589;DHT22;14235;48.532;8.722;2022-10-26T19:56:11;13.90;99.90
26589;DHT22;14235;48.532;8.722;2022-10-26T19:58:41;14.00;99.90
26589;DHT22;14235;48.532;8.722;2022-10-26T20:01:09;13.90;99.90
26589;DHT22;14235;48.532;8.722;2022-10-26T20:03:35;14.00;99.90
26589;DHT22;14235;48.532;8.722;2022-10-26T20:06:03;14.20;99.90
26589;DHT22;14235;48.532;8.722;2022-10-26T20:11:03;13.80;99.90
26589;DHT22;14235;48.532;8.722;2022-10-26T20:13:28;13.80;99.90
26589;DHT22;14235;48.532;8.722;2022-10-26T20:15:54;13.90;99.90
26589;DHT22;14235;48.532;8.722;2022-10-26T20:18:20;13.80;99.90
26589;DHT22;14235;48.532;8.722;2022-10-26T20:20:45;13.80;99.90
26589;DHT22;14235;48.532;8.722;2022-10-26T20:23:11;13.80;99.90
26589;DHT22;14235;48.532;8.722;2022-10-26T20:25:43;13.80;99.90
26589;DHT22;14235;48.532;8.722;2022-10-26T20:28:09;13.80;99.90
26589;DHT22;14235;48.532;8.722;2022-10-26T20:30:38;13.70;99.90
26589;DHT22;14235;48.532;8.722;2022-10-26T20:33:05;13.70;99.90
26589;DHT22;14235;48.532;8.722;2022-10-26T20:35:31;13.60;99.90
26589;DHT22;14235;48.532;8.722;2022-10-26T20:37:57;13.70;99.90
26589;DHT22;14235;48.532;8.722;2022-10-26T20:40:23;13.60;99.90
26589;DHT22;14235;48.532;8.722;2022-10-26T20:42:49;13.50;99.90
26589;DHT22;14235;48.532;8.722;2022-10-26T20:45:30;13.40;99.90
26589;DHT22;14235;48.532;8.722;2022-10-26T20:47:57;13.40;99.90
26589;DHT22;14235;48.532;8.722;2022-10-26T20:50:26;13.50;99.90
26589;DHT22;14235;48.532;8.722;2022-10-26T20:52:57;13.50;99.90
26589;DHT22;14235;48.532;8.722;2022-10-26T20:56:04;13.40;99.90
26589;DHT22;14235;48.532;8.722;2022-10-26T21:01:08;13.40;99.90
26589;DHT22;14235;48.532;8.722;2022-10-26T21:03:36;13.40;99.90
26589;DHT22;14235;48.532;8.722;2022-10-26T21:06:01;13.40;99.90
26589;DHT22;14235;48.532;8.722;2022-10-26T21:08:27;13.10;99.90
26589;DHT22;14235;48.532;8.722;2022-10-26T21:10:52;13.10;99.90
26589;DHT22;14235;48.532;8.722;2022-10-26T21:13:18;13.10;99.90
26589;DHT22;14235;48.532;8.722;2022-10-26T21:15:43;13.10;99.90
26589;DHT22;14235;48.532;8.722;2022-10-26T21:18:09;13.10;99.90
26589;DHT22;14235;48.532;8.722;2022-10-26T21:20:35;13.00;99.90